Terminal Aerodrome Forecast
Issued by NWS Quad Cities IA IL

Home | Current Version | Previous Version | Text Only | Print | Product List | Glossary On
Versions: 1 2 3 4 5 6 7 8 9 10 11 12 13 14 15 16 17 18 19 20
000
FTUS43 KDVN 031341 AAB
TAFDBQ
TAF AMD
KDBQ 031341Z 0314/0412 31005KT P6SM OVC024
     FM031500 28006KT P6SM OVC030
     FM040200 12005KT P6SM OVC025
     FM040900 14008KT 6SM -SN BR OVC015=

USA.gov is the U.S. government's official web portal to all federal, state and local government web resources and services.